Time;durP1;ratioP1;P1;durP2;ratioP2;P2;SDS_P1;SDS_P2;PMS_P1;PMS_P2;Temp;Humidity;BMP_temperature;BMP_pressure;BME280_temperature;BME280_humidity;BME280_pressure;Samples;Min_cycle;Max_cycle;Signal;HPM_P1;HPM_P2
2021/06/30 00:00:55;;;;;;;33.20;21.15;;;;;;;;;;5034694;28;20049;-64
2021/06/30 00:03:41;;;;;;;40.58;21.90;;;;;;;;;;5034592;28;20533;-64
2021/06/30 00:06:26;;;;;;;45.85;23.00;;;;;;;;;;5033524;28;20060;-64
2021/06/30 00:09:12;;;;;;;39.65;20.33;;;;;;;;;;5033554;28;20049;-64
2021/06/30 00:11:57;;;;;;;41.50;22.95;;;;;;;;;;5034533;28;20095;-64
2021/06/30 00:14:43;;;;;;;37.30;19.05;;;;;;;;;;5032671;28;20408;-64
2021/06/30 00:17:28;;;;;;;36.67;20.75;;;;;;;;;;5034622;28;20075;-64
2021/06/30 00:20:14;;;;;;;33.33;20.50;;;;;;;;;;5034227;28;20450;-64
2021/06/30 00:22:58;;;;;;;32.92;19.55;;;;;;;;;;5034089;28;20049;-64
2021/06/30 00:25:44;;;;;;;42.13;22.85;;;;;;;;;;5032569;28;20057;-64
2021/06/30 00:28:30;;;;;;;41.58;21.58;;;;;;;;;;5034293;28;20049;-64
2021/06/30 00:31:16;;;;;;;41.45;21.55;;;;;;;;;;5034048;28;20051;-64
2021/06/30 00:34:03;;;;;;;48.35;25.58;;;;;;;;;;5033327;28;20045;-66
2021/06/30 00:36:48;;;;;;;43.88;24.33;;;;;;;;;;5025792;28;20084;-64
2021/06/30 00:39:34;;;;;;;43.15;21.65;;;;;;;;;;5039267;28;20042;-64
2021/06/30 00:42:19;;;;;;;47.40;23.77;;;;;;;;;;5035203;28;20045;-64
2021/06/30 00:45:05;;;;;;;43.38;23.10;;;;;;;;;;5032785;28;20554;-64
2021/06/30 00:47:50;;;;;;;51.63;24.02;;;;;;;;;;5033965;28;20491;-63
2021/06/30 00:50:36;;;;;;;43.30;23.75;;;;;;;;;;5033373;28;20042;-63
2021/06/30 00:53:21;;;;;;;51.00;23.50;;;;;;;;;;5033769;28;20135;-65
2021/06/30 00:56:06;;;;;;;47.75;25.95;;;;;;;;;;5032672;28;20056;-64
2021/06/30 00:58:53;;;;;;;48.72;24.05;;;;;;;;;;5031936;28;20377;-64
2021/06/30 01:01:38;;;;;;;53.83;26.65;;;;;;;;;;5033545;28;20053;-64
2021/06/30 01:04:23;;;;;;;67.93;28.90;;;;;;;;;;5033552;28;20415;-64
2021/06/30 01:07:12;;;;;;;46.85;22.77;;;;;;;;;;5032748;28;20053;-63
2021/06/30 01:09:57;;;;;;;37.83;22.05;;;;;;;;;;5033453;28;20053;-64
2021/06/30 01:12:42;;;;;;;38.10;19.90;;;;;;;;;;5033335;28;20048;-64
2021/06/30 01:15:31;;;;;;;40.13;21.45;;;;;;;;;;5032406;28;20056;-64
2021/06/30 01:18:16;;;;;;;41.47;22.63;;;;;;;;;;5013709;28;20215;-64
2021/06/30 01:21:02;;;;;;;46.55;24.70;;;;;;;;;;5012461;28;20046;-65
2021/06/30 01:23:47;;;;;;;51.08;24.55;;;;;;;;;;5012265;28;20054;-63
2021/06/30 01:26:32;;;;;;;46.83;22.75;;;;;;;;;;5018125;28;20069;-64
2021/06/30 01:29:22;;;;;;;50.33;24.60;;;;;;;;;;5032454;28;20103;-66
2021/06/30 01:32:07;;;;;;;50.00;24.35;;;;;;;;;;5032966;28;20049;-63
2021/06/30 01:34:52;;;;;;;48.97;22.67;;;;;;;;;;5033090;28;20068;-63
2021/06/30 01:37:47;;;;;;;44.97;23.15;;;;;;;;;;5032010;28;20045;-64
2021/06/30 01:40:32;;;;;;;44.20;22.08;;;;;;;;;;5032604;28;20049;-64
2021/06/30 01:43:18;;;;;;;43.80;21.95;;;;;;;;;;5032759;28;20050;-64
2021/06/30 01:46:03;;;;;;;42.65;20.00;;;;;;;;;;5032819;28;20482;-64
2021/06/30 01:48:48;;;;;;;45.22;21.83;;;;;;;;;;5031778;28;20052;-64
2021/06/30 01:51:34;;;;;;;51.22;22.95;;;;;;;;;;5032625;28;20049;-64
2021/06/30 01:54:19;;;;;;;47.63;21.75;;;;;;;;;;5032472;28;20045;-64
2021/06/30 01:57:05;;;;;;;49.35;23.45;;;;;;;;;;5031752;28;20049;-64
2021/06/30 01:59:51;;;;;;;45.15;21.85;;;;;;;;;;5032401;28;20045;-64
2021/06/30 02:02:36;;;;;;;50.72;24.38;;;;;;;;;;5032622;28;20057;-64
2021/06/30 02:05:22;;;;;;;51.60;24.80;;;;;;;;;;5031123;28;20129;-65
2021/06/30 02:08:07;;;;;;;47.40;24.52;;;;;;;;;;5031565;28;20086;-65
2021/06/30 02:10:53;;;;;;;44.38;22.60;;;;;;;;;;5031767;28;20077;-65
2021/06/30 02:13:39;;;;;;;55.45;26.13;;;;;;;;;;5032335;28;20491;-64
2021/06/30 02:16:24;;;;;;;51.28;24.45;;;;;;;;;;5032436;28;20045;-63
2021/06/30 02:19:11;;;;;;;41.13;22.02;;;;;;;;;;5031432;28;20045;-64
2021/06/30 02:21:57;;;;;;;43.60;23.25;;;;;;;;;;5032199;28;20072;-64
2021/06/30 02:24:42;;;;;;;44.28;22.98;;;;;;;;;;5032295;28;20061;-64
2021/06/30 02:27:27;;;;;;;32.95;18.33;;;;;;;;;;5032288;28;20057;-65
2021/06/30 02:30:14;;;;;;;28.20;17.50;;;;;;;;;;5030961;28;20488;-65
2021/06/30 02:33:01;;;;;;;37.90;20.30;;;;;;;;;;5032050;28;20048;-64
2021/06/30 02:35:46;;;;;;;36.30;19.88;;;;;;;;;;5031872;28;20057;-64
2021/06/30 02:38:32;;;;;;;29.67;16.20;;;;;;;;;;5031258;28;20045;-65
2021/06/30 02:41:17;;;;;;;32.10;18.40;;;;;;;;;;5030384;28;20050;-65
2021/06/30 02:44:02;;;;;;;31.98;18.30;;;;;;;;;;5031277;28;20500;-64
2021/06/30 02:46:48;;;;;;;33.30;18.85;;;;;;;;;;5031864;28;20117;-64
2021/06/30 02:49:33;;;;;;;27.42;15.50;;;;;;;;;;5030700;28;20045;-64
2021/06/30 02:52:19;;;;;;;26.63;16.52;;;;;;;;;;5031802;28;20041;-64
2021/06/30 02:55:05;;;;;;;28.58;16.85;;;;;;;;;;5031887;28;20468;-64
2021/06/30 02:57:50;;;;;;;24.70;15.27;;;;;;;;;;5031425;28;20467;-65
2021/06/30 03:00:36;;;;;;;21.90;12.32;;;;;;;;;;5029814;28;20041;-65
2021/06/30 03:03:21;;;;;;;21.33;12.98;;;;;;;;;;5031643;28;20045;-65
2021/06/30 03:06:06;;;;;;;23.42;12.93;;;;;;;;;;5031860;28;20050;-65
2021/06/30 03:08:52;;;;;;;21.98;12.38;;;;;;;;;;5031826;28;20046;-65
2021/06/30 03:11:39;;;;;;;22.52;13.05;;;;;;;;;;5029682;28;20042;-64
2021/06/30 03:14:29;;;;;;;26.30;14.65;;;;;;;;;;5031523;28;20052;-65
2021/06/30 03:17:14;;;;;;;20.58;12.82;;;;;;;;;;5031829;28;20053;-64
2021/06/30 03:19:59;;;;;;;20.15;11.93;;;;;;;;;;5030094;28;20054;-64
2021/06/30 03:22:45;;;;;;;20.08;13.77;;;;;;;;;;5032176;28;20072;-64
2021/06/30 03:25:30;;;;;;;20.85;14.48;;;;;;;;;;5035373;28;20053;-64
2021/06/30 03:28:15;;;;;;;24.45;14.13;;;;;;;;;;5035462;28;20463;-64
2021/06/30 03:31:01;;;;;;;23.58;14.93;;;;;;;;;;5034225;28;20060;-64
2021/06/30 03:33:46;;;;;;;21.00;13.77;;;;;;;;;;5035335;28;20061;-65
2021/06/30 03:36:31;;;;;;;29.02;14.65;;;;;;;;;;5035340;28;20124;-64
2021/06/30 03:39:17;;;;;;;23.02;14.73;;;;;;;;;;5035007;28;20055;-64
2021/06/30 03:42:02;;;;;;;28.65;17.23;;;;;;;;;;5034023;28;20052;-64
2021/06/30 03:44:48;;;;;;;23.13;13.82;;;;;;;;;;5035574;28;20048;-65
2021/06/30 03:47:33;;;;;;;25.25;15.52;;;;;;;;;;5037792;28;20180;-65
2021/06/30 03:50:18;;;;;;;24.10;16.05;;;;;;;;;;5037320;28;20056;-65
2021/06/30 03:53:04;;;;;;;26.27;15.52;;;;;;;;;;5035724;28;20045;-65
2021/06/30 03:55:49;;;;;;;29.67;17.13;;;;;;;;;;5037000;28;20053;-65
2021/06/30 03:58:35;;;;;;;23.30;15.50;;;;;;;;;;5037282;28;20183;-65
2021/06/30 04:01:21;;;;;;;20.35;14.93;;;;;;;;;;5035652;28;20045;-65
2021/06/30 04:04:08;;;;;;;24.40;13.18;;;;;;;;;;5037290;28;20048;-65
2021/06/30 04:06:54;;;;;;;25.35;14.38;;;;;;;;;;5037750;28;20111;-65
2021/06/30 04:09:39;;;;;;;23.00;14.20;;;;;;;;;;5037241;28;20179;-64
2021/06/30 04:12:24;;;;;;;21.15;14.50;;;;;;;;;;5035708;28;20048;-65
2021/06/30 04:15:10;;;;;;;27.13;14.13;;;;;;;;;;5037696;28;20060;-65
2021/06/30 04:17:58;;;;;;;36.03;18.67;;;;;;;;;;5036527;28;20061;-65
2021/06/30 04:20:44;;;;;;;28.20;17.15;;;;;;;;;;5036402;28;20056;-65
2021/06/30 04:23:29;;;;;;;30.63;15.82;;;;;;;;;;5033363;28;20057;-64
2021/06/30 04:26:15;;;;;;;24.00;15.63;;;;;;;;;;5016684;28;20110;-65
2021/06/30 04:29:00;;;;;;;34.75;18.02;;;;;;;;;;5015165;28;20053;-64
2021/06/30 04:31:45;;;;;;;33.33;17.42;;;;;;;;;;5014613;28;20104;-64
2021/06/30 04:34:31;;;;;;;32.97;14.45;;;;;;;;;;5032898;28;20049;-64
2021/06/30 04:37:16;;;;;;;31.58;15.55;;;;;;;;;;5034822;28;20057;-64
2021/06/30 04:40:01;;;;;;;31.35;17.05;;;;;;;;;;5035101;28;20042;-65
2021/06/30 04:42:47;;;;;;;28.70;16.90;;;;;;;;;;5036038;28;20047;-65
2021/06/30 04:45:32;;;;;;;29.52;14.18;;;;;;;;;;5021245;28;20041;-65
2021/06/30 04:48:19;;;;;;;31.00;16.48;;;;;;;;;;5034000;28;20045;-64
2021/06/30 04:51:05;;;;;;;25.73;14.93;;;;;;;;;;5032048;28;20042;-64
2021/06/30 04:53:51;;;;;;;28.45;15.20;;;;;;;;;;5079346;22;20159;-66
2021/06/30 04:56:40;;;;;;;29.23;17.85;;;;;;;;;;5073664;28;20513;-66
2021/06/30 04:59:25;;;;;;;25.20;14.80;;;;;;;;;;5063634;28;20048;-66
2021/06/30 05:02:11;;;;;;;35.45;17.50;;;;;;;;;;5054647;28;20037;-67
2021/06/30 05:04:56;;;;;;;30.42;16.65;;;;;;;;;;5054427;28;20044;-66
2021/06/30 05:07:42;;;;;;;31.17;16.80;;;;;;;;;;5057118;28;20053;-66
2021/06/30 05:10:27;;;;;;;38.42;18.02;;;;;;;;;;5054958;28;20067;-66
2021/06/30 05:13:13;;;;;;;23.45;16.33;;;;;;;;;;5053381;28;20514;-67
2021/06/30 05:15:58;;;;;;;26.17;16.60;;;;;;;;;;5053488;28;20059;-66
2021/06/30 05:18:43;;;;;;;30.98;16.98;;;;;;;;;;5060439;28;20059;-66
2021/06/30 05:21:29;;;;;;;26.55;16.23;;;;;;;;;;5072903;28;20055;-66
2021/06/30 05:24:14;;;;;;;29.48;15.73;;;;;;;;;;5073369;28;20051;-66
2021/06/30 05:26:59;;;;;;;25.48;15.27;;;;;;;;;;5079341;28;20040;-66
2021/06/30 05:29:45;;;;;;;26.27;16.15;;;;;;;;;;5061657;28;20131;-66
2021/06/30 05:32:30;;;;;;;28.23;16.73;;;;;;;;;;5053186;28;20049;-66
2021/06/30 05:35:16;;;;;;;23.35;13.38;;;;;;;;;;5052969;28;20052;-66
2021/06/30 05:38:01;;;;;;;20.08;13.13;;;;;;;;;;5053631;28;20056;-66
2021/06/30 05:40:46;;;;;;;24.23;13.85;;;;;;;;;;5052806;28;20060;-66
2021/06/30 05:43:32;;;;;;;22.80;13.85;;;;;;;;;;5052794;28;20052;-66
2021/06/30 05:46:18;;;;;;;30.40;15.65;;;;;;;;;;5055297;28;20041;-66
2021/06/30 05:49:03;;;;;;;25.00;14.77;;;;;;;;;;5053001;28;20045;-66
2021/06/30 05:51:48;;;;;;;25.73;15.45;;;;;;;;;;5056110;28;20048;-66
2021/06/30 05:54:34;;;;;;;28.25;15.98;;;;;;;;;;5053573;28;20052;-66
2021/06/30 05:57:19;;;;;;;26.25;13.50;;;;;;;;;;5061816;28;20685;-66
2021/06/30 06:00:06;;;;;;;19.52;13.25;;;;;;;;;;5072166;28;20121;-66
2021/06/30 06:02:53;;;;;;;26.40;15.77;;;;;;;;;;5072198;28;20045;-65
2021/06/30 06:05:38;;;;;;;20.20;13.52;;;;;;;;;;5072490;28;20048;-65
2021/06/30 06:08:24;;;;;;;27.23;15.30;;;;;;;;;;5072339;28;20037;-66
2021/06/30 06:11:13;;;;;;;28.92;15.15;;;;;;;;;;5072090;28;20130;-67
2021/06/30 06:13:58;;;;;;;27.65;15.82;;;;;;;;;;5057126;28;20052;-66
2021/06/30 06:16:43;;;;;;;29.42;16.30;;;;;;;;;;5069992;28;20143;-66
2021/06/30 06:19:28;;;;;;;27.17;15.75;;;;;;;;;;5071242;28;20053;-66
2021/06/30 06:22:14;;;;;;;30.35;16.05;;;;;;;;;;5072175;28;20726;-67
2021/06/30 06:24:59;;;;;;;32.70;17.60;;;;;;;;;;5056269;28;20072;-67
2021/06/30 06:27:44;;;;;;;26.45;14.25;;;;;;;;;;5071086;28;20040;-67
2021/06/30 06:30:30;;;;;;;33.30;15.27;;;;;;;;;;5071818;28;20047;-67
2021/06/30 06:33:16;;;;;;;29.30;15.15;;;;;;;;;;5066405;28;20052;-66
2021/06/30 06:36:02;;;;;;;27.15;17.08;;;;;;;;;;5052063;28;20068;-67
2021/06/30 06:38:47;;;;;;;30.40;17.40;;;;;;;;;;5051865;28;20063;-66
2021/06/30 06:41:32;;;;;;;32.47;15.00;;;;;;;;;;5055316;28;20060;-67
2021/06/30 06:44:17;;;;;;;35.33;17.13;;;;;;;;;;5071796;28;20410;-66
2021/06/30 06:47:03;;;;;;;30.55;16.55;;;;;;;;;;5060783;28;20155;-67
2021/06/30 06:49:48;;;;;;;30.08;15.68;;;;;;;;;;5061227;28;20579;-66
2021/06/30 06:52:34;;;;;;;35.63;17.58;;;;;;;;;;5066697;28;20044;-67
2021/06/30 06:55:19;;;;;;;27.83;16.33;;;;;;;;;;5071248;28;20055;-66
2021/06/30 06:58:04;;;;;;;30.48;15.30;;;;;;;;;;5058859;28;20049;-67
2021/06/30 07:00:49;;;;;;;25.83;14.50;;;;;;;;;;5070010;28;20043;-67
2021/06/30 07:03:35;;;;;;;23.05;14.52;;;;;;;;;;5055637;28;20045;-66
2021/06/30 07:06:20;;;;;;;22.77;13.48;;;;;;;;;;5055862;28;20052;-66
2021/06/30 07:09:06;;;;;;;23.00;12.40;;;;;;;;;;5055846;28;20491;-66
2021/06/30 07:11:52;;;;;;;24.38;12.98;;;;;;;;;;5065502;28;20056;-66
2021/06/30 07:14:37;;;;;;;24.65;14.55;;;;;;;;;;5073830;28;20129;-66
2021/06/30 07:17:22;;;;;;;24.40;14.05;;;;;;;;;;5075705;28;20422;-66
2021/06/30 07:20:08;;;;;;;18.13;11.30;;;;;;;;;;5075232;28;20056;-66
2021/06/30 07:22:53;;;;;;;21.15;12.57;;;;;;;;;;5074336;28;20521;-66
2021/06/30 07:25:39;;;;;;;26.88;12.07;;;;;;;;;;5074183;28;20044;-65
2021/06/30 07:28:24;;;;;;;22.40;11.75;;;;;;;;;;5075329;28;20174;-65
2021/06/30 07:31:10;;;;;;;20.23;11.48;;;;;;;;;;5060972;28;20406;-66
2021/06/30 07:33:55;;;;;;;20.63;11.82;;;;;;;;;;5074400;28;20064;-65
2021/06/30 07:36:40;;;;;;;24.67;12.32;;;;;;;;;;5075188;28;20059;-66
2021/06/30 07:39:26;;;;;;;18.85;11.77;;;;;;;;;;5075177;28;20186;-66
2021/06/30 07:42:11;;;;;;;20.38;11.23;;;;;;;;;;5073878;28;20509;-65
2021/06/30 07:44:56;;;;;;;22.35;12.32;;;;;;;;;;5074971;28;20057;-66
2021/06/30 07:47:42;;;;;;;22.70;13.30;;;;;;;;;;5056222;28;20090;-66
2021/06/30 07:50:27;;;;;;;21.20;13.75;;;;;;;;;;5054733;28;20052;-66
2021/06/30 07:53:13;;;;;;;27.00;14.23;;;;;;;;;;5061527;28;20055;-66
2021/06/30 07:55:58;;;;;;;25.48;12.38;;;;;;;;;;5075072;28;20114;-67
2021/06/30 07:58:43;;;;;;;30.95;14.63;;;;;;;;;;5074764;28;20043;-66
2021/06/30 08:01:29;;;;;;;21.50;12.55;;;;;;;;;;5074588;28;20143;-66
2021/06/30 08:04:14;;;;;;;26.05;12.57;;;;;;;;;;5073172;28;20045;-66
2021/06/30 08:06:59;;;;;;;23.95;13.05;;;;;;;;;;5074822;28;20055;-66
2021/06/30 08:09:45;;;;;;;19.98;11.25;;;;;;;;;;5064843;28;20072;-67
2021/06/30 08:12:30;;;;;;;23.90;11.20;;;;;;;;;;5054461;28;20150;-66
2021/06/30 08:15:16;;;;;;;20.25;10.77;;;;;;;;;;5054579;28;20056;-67
2021/06/30 08:18:01;;;;;;;22.98;11.48;;;;;;;;;;5063375;28;20059;-67
2021/06/30 08:20:51;;;;;;;26.20;11.40;;;;;;;;;;5074113;28;20106;-65
2021/06/30 08:23:36;;;;;;;20.52;11.27;;;;;;;;;;5074370;28;20052;-65
2021/06/30 08:26:22;;;;;;;18.42;11.75;;;;;;;;;;5074217;28;20052;-67
2021/06/30 08:29:07;;;;;;;19.10;9.75;;;;;;;;;;5073474;28;20059;-67
2021/06/30 08:31:53;;;;;;;13.40;10.25;;;;;;;;;;5074358;28;20460;-66
2021/06/30 08:34:38;;;;;;;22.25;12.20;;;;;;;;;;5074187;28;20051;-67
2021/06/30 08:37:25;;;;;;;18.30;11.07;;;;;;;;;;5074524;28;20542;-66
2021/06/30 08:40:11;;;;;;;18.35;11.57;;;;;;;;;;5064264;28;20414;-66
2021/06/30 08:42:56;;;;;;;21.40;12.35;;;;;;;;;;5064372;28;20052;-67
2021/06/30 08:45:43;;;;;;;16.55;10.98;;;;;;;;;;5065036;28;20051;-67
2021/06/30 08:48:31;;;;;;;14.52;8.48;;;;;;;;;;5063658;28;20058;-66
2021/06/30 08:51:23;;;;;;;15.13;9.25;;;;;;;;;;5066166;28;20046;-65
2021/06/30 08:54:08;;;;;;;10.27;7.03;;;;;;;;;;5054706;28;20052;-66
2021/06/30 08:57:18;;;;;;;16.52;7.60;;;;;;;;;;5108286;27;20411;-66
2021/06/30 09:00:06;;;;;;;11.70;7.30;;;;;;;;;;5108591;28;20054;-66
2021/06/30 09:02:56;;;;;;;13.07;8.35;;;;;;;;;;5108690;28;20055;-65
2021/06/30 09:08:48;;;;;;;15.35;8.70;;;;;;;;;;5089357;28;20075;-66
2021/06/30 09:11:34;;;;;;;16.55;8.70;;;;;;;;;;5087681;28;20059;-66
2021/06/30 09:14:35;;;;;;;13.23;7.72;;;;;;;;;;5088306;28;20059;-66
2021/06/30 09:17:27;;;;;;;12.53;7.90;;;;;;;;;;5088002;28;20131;-65
2021/06/30 09:20:12;;;;;;;10.65;5.60;;;;;;;;;;5090778;28;20497;-66
2021/06/30 09:22:58;;;;;;;9.02;5.85;;;;;;;;;;5102867;28;20081;-66
2021/06/30 09:25:44;;;;;;;11.15;6.95;;;;;;;;;;5108156;28;20070;-66
2021/06/30 09:28:29;;;;;;;9.57;5.78;;;;;;;;;;5109410;28;20067;-66
2021/06/30 09:31:15;;;;;;;9.70;5.53;;;;;;;;;;5105968;28;20059;-65
2021/06/30 09:34:01;;;;;;;11.90;6.28;;;;;;;;;;5095827;28;20063;-65
2021/06/30 09:36:50;;;;;;;9.70;5.60;;;;;;;;;;5099514;28;20036;-65
2021/06/30 09:39:37;;;;;;;9.75;5.75;;;;;;;;;;5097664;28;20143;-65
2021/06/30 09:42:23;;;;;;;7.07;4.65;;;;;;;;;;5098113;28;20512;-65
2021/06/30 09:45:14;;;;;;;7.38;4.95;;;;;;;;;;5096681;28;20595;-65
2021/06/30 09:47:59;;;;;;;9.30;5.03;;;;;;;;;;5088458;28;20410;-65
2021/06/30 09:50:44;;;;;;;8.95;5.57;;;;;;;;;;5088252;28;20047;-65
2021/06/30 09:53:33;;;;;;;10.02;6.18;;;;;;;;;;5088493;28;20055;-65
2021/06/30 09:59:38;;;;;;;6.78;5.38;;;;;;;;;;5085580;28;20494;-65
2021/06/30 10:02:24;;;;;;;7.53;5.28;;;;;;;;;;5088459;28;20495;-65
2021/06/30 10:05:09;;;;;;;8.25;5.22;;;;;;;;;;5088826;28;20125;-65
2021/06/30 10:07:57;;;;;;;6.32;3.95;;;;;;;;;;5091108;28;20044;-65
2021/06/30 10:10:44;;;;;;;7.80;4.22;;;;;;;;;;5081461;28;20066;-65
2021/06/30 10:13:29;;;;;;;7.30;4.50;;;;;;;;;;5084123;28;20113;-65
2021/06/30 10:16:18;;;;;;;7.85;4.55;;;;;;;;;;5081630;28;20040;-65
2021/06/30 10:19:03;;;;;;;7.32;5.15;;;;;;;;;;5077222;28;20509;-65
2021/06/30 10:21:49;;;;;;;7.47;4.60;;;;;;;;;;5073179;28;20166;-65
2021/06/30 10:24:34;;;;;;;3.47;3.17;;;;;;;;;;5086712;28;20047;-65
2021/06/30 10:27:20;;;;;;;5.70;3.42;;;;;;;;;;5091464;28;20145;-65
2021/06/30 10:30:06;;;;;;;5.25;4.18;;;;;;;;;;5092784;28;20055;-65
2021/06/30 10:32:55;;;;;;;4.57;3.60;;;;;;;;;;5093522;28;20579;-65
2021/06/30 10:35:46;;;;;;;7.15;5.05;;;;;;;;;;5093334;28;20117;-64
2021/06/30 10:38:54;;;;;;;5.10;4.20;;;;;;;;;;5093277;28;20102;-65
2021/06/30 10:41:53;;;;;;;7.90;4.38;;;;;;;;;;5072966;28;20051;-65
2021/06/30 10:44:45;;;;;;;6.13;4.07;;;;;;;;;;5073002;28;20056;-65
2021/06/30 10:47:31;;;;;;;4.93;3.40;;;;;;;;;;5081512;28;20062;-66
2021/06/30 10:50:29;;;;;;;5.18;3.88;;;;;;;;;;5091455;28;20047;-65
2021/06/30 10:53:15;;;;;;;5.75;3.70;;;;;;;;;;5073440;28;20115;-65
2021/06/30 10:56:01;;;;;;;6.80;3.85;;;;;;;;;;5085746;28;20046;-65
2021/06/30 10:59:00;;;;;;;7.57;5.13;;;;;;;;;;5090380;28;20071;-65
2021/06/30 11:02:04;;;;;;;6.88;5.03;;;;;;;;;;5078717;28;20051;-65
2021/06/30 11:04:50;;;;;;;8.30;5.13;;;;;;;;;;5072820;28;20517;-65
2021/06/30 11:07:35;;;;;;;6.25;5.05;;;;;;;;;;5092096;28;20064;-65
2021/06/30 11:10:23;;;;;;;9.25;5.97;;;;;;;;;;5089792;28;20059;-65
2021/06/30 11:13:09;;;;;;;7.68;5.50;;;;;;;;;;5073372;28;20047;-65
2021/06/30 11:15:54;;;;;;;6.20;4.50;;;;;;;;;;5073296;28;20043;-65
2021/06/30 11:18:43;;;;;;;8.52;4.05;;;;;;;;;;5072579;28;20051;-65
2021/06/30 11:21:47;;;;;;;7.30;3.65;;;;;;;;;;5079741;28;20047;-65
2021/06/30 11:24:42;;;;;;;5.00;4.20;;;;;;;;;;5093259;28;20545;-65
2021/06/30 11:27:34;;;;;;;6.53;4.00;;;;;;;;;;5093433;28;20074;-65
2021/06/30 11:30:29;;;;;;;8.07;4.13;;;;;;;;;;5091504;28;20048;-65
2021/06/30 11:33:14;;;;;;;7.70;4.20;;;;;;;;;;5093259;28;20147;-65
2021/06/30 11:36:02;;;;;;;9.93;5.03;;;;;;;;;;5093205;28;20050;-64
2021/06/30 11:38:48;;;;;;;9.57;5.60;;;;;;;;;;5088596;28;20156;-64
2021/06/30 11:41:42;;;;;;;8.98;5.50;;;;;;;;;;5092950;28;20409;-65
2021/06/30 11:44:38;;;;;;;12.27;6.53;;;;;;;;;;5079345;28;20067;-65
2021/06/30 11:47:23;;;;;;;12.82;8.10;;;;;;;;;;5072787;28;20509;-65
2021/06/30 11:50:16;;;;;;;11.15;7.55;;;;;;;;;;5071376;28;20113;-65
2021/06/30 11:53:02;;;;;;;10.52;8.40;;;;;;;;;;5072567;28;20509;-65
2021/06/30 11:55:47;;;;;;;17.83;8.82;;;;;;;;;;5071987;28;20094;-65
2021/06/30 11:58:46;;;;;;;11.20;7.57;;;;;;;;;;5071448;28;20075;-65
2021/06/30 12:01:33;;;;;;;12.20;7.82;;;;;;;;;;5072293;28;20044;-65
2021/06/30 12:04:25;;;;;;;10.75;6.97;;;;;;;;;;5075423;28;20043;-65
2021/06/30 12:07:11;;;;;;;;;;;;;;;;;;5079662;28;20044;-65
2021/06/30 12:10:03;;;;;;;9.50;7.95;;;;;;;;;;5083372;28;19928;-65
2021/06/30 12:12:49;;;;;;;13.93;8.48;;;;;;;;;;5062328;28;20055;-65
2021/06/30 12:15:34;;;;;;;16.25;8.38;;;;;;;;;;5080337;28;20047;-65
2021/06/30 12:18:23;;;;;;;14.05;8.65;;;;;;;;;;5077233;28;20513;-65
2021/06/30 12:21:09;;;;;;;13.30;7.80;;;;;;;;;;5079349;28;20048;-65
2021/06/30 12:23:54;;;;;;;12.70;7.93;;;;;;;;;;5088498;28;20062;-65
2021/06/30 12:26:58;;;;;;;11.43;7.10;;;;;;;;;;5086241;28;20394;-65
2021/06/30 12:29:44;;;;;;;10.00;6.35;;;;;;;;;;5087287;28;20409;-65
2021/06/30 12:32:30;;;;;;;9.32;6.60;;;;;;;;;;5070085;28;20052;-65
2021/06/30 12:35:16;;;;;;;10.48;7.13;;;;;;;;;;5070280;28;20121;-65
2021/06/30 12:38:10;;;;;;;12.63;8.48;;;;;;;;;;5070231;28;20059;-65
2021/06/30 12:41:07;;;;;;;15.60;8.32;;;;;;;;;;5075524;28;20051;-65
2021/06/30 12:43:59;;;;;;;15.80;10.13;;;;;;;;;;5089255;28;20070;-65
2021/06/30 12:46:45;;;;;;;;;;;;;;;;;;5085947;28;20043;-65
2021/06/30 12:49:30;;;;;;;15.65;9.43;;;;;;;;;;5072973;28;19920;-65
2021/06/30 12:52:21;;;;;;;18.23;10.20;;;;;;;;;;5089195;28;20050;-65
2021/06/30 12:55:11;;;;;;;13.90;9.60;;;;;;;;;;5089851;28;20115;-65
2021/06/30 12:58:04;;;;;;;15.75;9.60;;;;;;;;;;5072667;28;20052;-65
2021/06/30 13:01:00;;;;;;;13.15;9.88;;;;;;;;;;5089290;28;20047;-65
2021/06/30 13:03:50;;;;;;;11.65;8.85;;;;;;;;;;5086448;28;20163;-64
2021/06/30 13:06:36;;;;;;;13.32;9.77;;;;;;;;;;5076750;28;20059;-65
2021/06/30 13:09:34;;;;;;;13.75;9.15;;;;;;;;;;5071684;28;20061;-65
2021/06/30 13:12:21;;;;;;;12.75;8.38;;;;;;;;;;5069723;28;20178;-64
2021/06/30 13:15:20;;;;;;;16.90;9.10;;;;;;;;;;5068735;28;20040;-65
2021/06/30 13:18:16;;;;;;;12.43;8.55;;;;;;;;;;5067697;28;20526;-65
2021/06/30 13:21:07;;;;;;;12.02;8.40;;;;;;;;;;5076725;28;20687;-65
2021/06/30 13:24:04;;;;;;;12.15;7.38;;;;;;;;;;5087937;28;20067;-65
2021/06/30 13:36:03;;;;;;;8.95;6.53;;;;;;;;;;5068799;28;20056;-65
2021/06/30 13:38:49;;;;;;;8.65;6.20;;;;;;;;;;5067196;28;20076;-65
2021/06/30 13:41:34;;;;;;;8.98;5.78;;;;;;;;;;5067811;28;20058;-65
2021/06/30 13:44:23;;;;;;;9.10;6.05;;;;;;;;;;5071485;28;20055;-65
2021/06/30 13:47:09;;;;;;;9.63;5.82;;;;;;;;;;5073474;28;20094;-65
2021/06/30 13:49:54;;;;;;;6.50;5.60;;;;;;;;;;5071074;28;20141;-65
2021/06/30 13:52:39;;;;;;;8.35;5.78;;;;;;;;;;5088586;28;20047;-65
2021/06/30 13:55:25;;;;;;;7.70;5.88;;;;;;;;;;5071922;28;20117;-65
2021/06/30 13:58:10;;;;;;;8.45;6.90;;;;;;;;;;5076947;28;20520;-65
2021/06/30 14:00:55;;;;;;;9.80;6.93;;;;;;;;;;5089207;28;20140;-65
2021/06/30 14:03:41;;;;;;;14.43;10.25;;;;;;;;;;5091528;28;20097;-65
2021/06/30 14:06:26;;;;;;;13.82;8.95;;;;;;;;;;5091491;28;20044;-65
2021/06/30 14:09:12;;;;;;;11.80;8.95;;;;;;;;;;5072162;28;20056;-65
2021/06/30 14:11:57;;;;;;;11.82;9.90;;;;;;;;;;5071488;28;20041;-65
2021/06/30 14:14:42;;;;;;;13.40;9.73;;;;;;;;;;5073821;28;20062;-65
2021/06/30 14:17:27;;;;;;;15.45;9.77;;;;;;;;;;5073604;28;20051;-65
2021/06/30 14:20:13;;;;;;;10.20;8.80;;;;;;;;;;5083737;28;20560;-65
2021/06/30 14:22:59;;;;;;;15.20;10.23;;;;;;;;;;5079908;28;20051;-65
2021/06/30 14:25:44;;;;;;;11.18;9.45;;;;;;;;;;5070849;28;20504;-65
2021/06/30 14:28:32;;;;;;;16.85;10.07;;;;;;;;;;5081467;28;20070;-65
2021/06/30 14:31:17;;;;;;;17.15;11.13;;;;;;;;;;5092006;28;20524;-66
2021/06/30 14:34:02;;;;;;;13.45;9.88;;;;;;;;;;5082467;28;20044;-66
2021/06/30 14:36:48;;;;;;;11.60;10.48;;;;;;;;;;5070608;28;20501;-65
2021/06/30 14:39:34;;;;;;;13.52;10.70;;;;;;;;;;5077180;28;20101;-65
2021/06/30 14:42:19;;;;;;;13.73;11.35;;;;;;;;;;5091515;28;20046;-65
2021/06/30 14:45:08;;;;;;;15.43;11.55;;;;;;;;;;5089521;28;20060;-66
2021/06/30 14:47:57;;;;;;;11.98;10.73;;;;;;;;;;5081731;28;20627;-65
2021/06/30 14:50:42;;;;;;;16.02;11.15;;;;;;;;;;5080122;28;20532;-65
2021/06/30 14:53:28;;;;;;;11.60;10.38;;;;;;;;;;5081317;28;20035;-65
2021/06/30 14:56:13;;;;;;;15.27;10.88;;;;;;;;;;5081870;28;20063;-66
2021/06/30 14:58:58;;;;;;;15.20;12.18;;;;;;;;;;5079817;28;20454;-66
2021/06/30 15:01:44;;;;;;;15.88;12.20;;;;;;;;;;5077453;28;20036;-65
2021/06/30 15:04:29;;;;;;;13.50;11.57;;;;;;;;;;5081143;28;20052;-66
2021/06/30 15:07:15;;;;;;;17.50;12.70;;;;;;;;;;5081243;28;20124;-66
2021/06/30 15:10:00;;;;;;;15.60;12.00;;;;;;;;;;5081505;28;20059;-67
2021/06/30 15:12:46;;;;;;;13.98;11.43;;;;;;;;;;5079604;28;20097;-66
2021/06/30 15:15:32;;;;;;;12.73;10.35;;;;;;;;;;5079466;28;20461;-66
2021/06/30 15:18:20;;;;;;;9.30;8.35;;;;;;;;;;5080589;28;20047;-66
2021/06/30 15:21:05;;;;;;;8.93;8.02;;;;;;;;;;5076575;28;20077;-66
2021/06/30 15:23:50;;;;;;;13.30;8.18;;;;;;;;;;5075471;28;20051;-66
2021/06/30 15:26:35;;;;;;;9.23;7.85;;;;;;;;;;5078239;28;20173;-66
2021/06/30 15:29:21;;;;;;;17.63;9.57;;;;;;;;;;5080877;28;20139;-65
2021/06/30 15:32:06;;;;;;;11.15;8.00;;;;;;;;;;5081129;28;20047;-66
2021/06/30 15:34:54;;;;;;;12.15;8.20;;;;;;;;;;5080439;28;20036;-66
2021/06/30 15:37:40;;;;;;;10.05;9.00;;;;;;;;;;5080600;28;20619;-66
2021/06/30 15:40:25;;;;;;;13.15;9.82;;;;;;;;;;5079256;28;20048;-66
2021/06/30 15:43:11;;;;;;;16.10;10.15;;;;;;;;;;5076508;28;20040;-66
2021/06/30 15:45:56;;;;;;;14.98;10.45;;;;;;;;;;5078520;28;20051;-66
2021/06/30 15:48:43;;;;;;;11.60;10.07;;;;;;;;;;5076093;28;20163;-66
2021/06/30 15:51:28;;;;;;;11.15;9.70;;;;;;;;;;5080315;28;20179;-66
2021/06/30 15:54:13;;;;;;;15.77;11.80;;;;;;;;;;5078997;28;20502;-66
2021/06/30 15:56:58;;;;;;;14.68;11.18;;;;;;;;;;5078018;28;20043;-66
2021/06/30 15:59:43;;;;;;;17.35;11.85;;;;;;;;;;5078841;28;20521;-67
2021/06/30 16:02:30;;;;;;;13.25;11.27;;;;;;;;;;5077325;28;20410;-66
2021/06/30 16:05:16;;;;;;;13.18;11.60;;;;;;;;;;5078050;28;20190;-66
2021/06/30 16:08:02;;;;;;;12.02;9.20;;;;;;;;;;5077958;28;20041;-66
2021/06/30 16:10:47;;;;;;;14.02;9.98;;;;;;;;;;5078476;28;20048;-66
2021/06/30 16:13:33;;;;;;;11.40;9.05;;;;;;;;;;5072004;28;20040;-66
2021/06/30 16:16:19;;;;;;;15.95;8.27;;;;;;;;;;5083887;28;20055;-66
2021/06/30 16:19:04;;;;;;;13.65;7.70;;;;;;;;;;5067467;28;20043;-66
2021/06/30 16:21:49;;;;;;;11.10;7.90;;;;;;;;;;5069929;28;20036;-66
2021/06/30 16:24:35;;;;;;;12.07;7.80;;;;;;;;;;5087698;28;20170;-67
2021/06/30 16:27:20;;;;;;;13.68;6.63;;;;;;;;;;5086766;28;20405;-66
2021/06/30 16:30:06;;;;;;;13.05;7.35;;;;;;;;;;5069139;28;20546;-67
2021/06/30 16:32:52;;;;;;;13.18;8.30;;;;;;;;;;5079395;28;20453;-66